sensor_id;sensor_type;location;lat;lon;timestamp;temperature;humidity
71175;DHT22;58876;51.994;4.472;2022-09-09T00:01:35;16.80;81.82
71175;DHT22;58876;51.994;4.472;2022-09-09T00:06:46;16.87;81.72
71175;DHT22;58876;51.994;4.472;2022-09-09T00:09:21;16.89;81.39
71175;DHT22;58876;51.994;4.472;2022-09-09T00:12:47;16.80;81.84
71175;DHT22;58876;51.994;4.472;2022-09-09T00:18:02;16.80;82.10
71175;DHT22;58876;51.994;4.472;2022-09-09T00:20:39;16.71;82.78
71175;DHT22;58876;51.994;4.472;2022-09-09T00:26:38;16.90;81.89
71175;DHT22;58876;51.994;4.472;2022-09-09T00:38:51;16.80;82.30
71175;DHT22;58876;51.994;4.472;2022-09-09T00:44:00;16.82;82.33
71175;DHT22;58876;51.994;4.472;2022-09-09T00:49:23;16.72;82.76
71175;DHT22;58876;51.994;4.472;2022-09-09T00:52:08;16.75;82.69
71175;DHT22;58876;51.994;4.472;2022-09-09T00:54:55;16.71;82.71
71175;DHT22;58876;51.994;4.472;2022-09-09T00:57:34;16.56;83.50
71175;DHT22;58876;51.994;4.472;2022-09-09T01:00:20;16.53;83.84
71175;DHT22;58876;51.994;4.472;2022-09-09T01:11:22;16.72;82.99
71175;DHT22;58876;51.994;4.472;2022-09-09T01:16:47;16.82;82.61
71175;DHT22;58876;51.994;4.472;2022-09-09T01:19:27;16.80;82.77
71175;DHT22;58876;51.994;4.472;2022-09-09T01:27:56;16.96;82.24
71175;DHT22;58876;51.994;4.472;2022-09-09T01:30:23;16.86;82.59
71175;DHT22;58876;51.994;4.472;2022-09-09T01:32:53;16.96;82.01
71175;DHT22;58876;51.994;4.472;2022-09-09T01:35:45;16.82;82.78
71175;DHT22;58876;51.994;4.472;2022-09-09T01:38:14;16.83;82.29
71175;DHT22;58876;51.994;4.472;2022-09-09T01:40:40;16.83;82.38
71175;DHT22;58876;51.994;4.472;2022-09-09T01:43:07;16.80;82.42
71175;DHT22;58876;51.994;4.472;2022-09-09T01:45:33;16.87;81.89
71175;DHT22;58876;51.994;4.472;2022-09-09T01:47:59;16.84;82.05
71175;DHT22;58876;51.994;4.472;2022-09-09T01:50:25;16.83;82.11
71175;DHT22;58876;51.994;4.472;2022-09-09T01:52:56;16.79;82.25
71175;DHT22;58876;51.994;4.472;2022-09-09T01:55:33;16.75;82.32
71175;DHT22;58876;51.994;4.472;2022-09-09T01:58:24;16.63;82.59
71175;DHT22;58876;51.994;4.472;2022-09-09T02:01:16;16.63;82.56
71175;DHT22;58876;51.994;4.472;2022-09-09T02:03:51;16.62;82.32
71175;DHT22;58876;51.994;4.472;2022-09-09T02:06:37;16.65;82.11
71175;DHT22;58876;51.994;4.472;2022-09-09T02:09:12;16.69;81.83
71175;DHT22;58876;51.994;4.472;2022-09-09T02:11:38;16.72;81.36
71175;DHT22;58876;51.994;4.472;2022-09-09T02:14:14;16.69;81.27
71175;DHT22;58876;51.994;4.472;2022-09-09T02:19:37;16.72;81.14
71175;DHT22;58876;51.994;4.472;2022-09-09T02:22:04;16.65;81.43
71175;DHT22;58876;51.994;4.472;2022-09-09T02:24:35;16.59;81.72
71175;DHT22;58876;51.994;4.472;2022-09-09T02:27:04;16.63;81.30
71175;DHT22;58876;51.994;4.472;2022-09-09T02:29:39;16.63;81.22
71175;DHT22;58876;51.994;4.472;2022-09-09T02:32:12;16.44;81.65
71175;DHT22;58876;51.994;4.472;2022-09-09T02:34:44;16.55;81.31
71175;DHT22;58876;51.994;4.472;2022-09-09T02:37:12;16.56;81.06
71175;DHT22;58876;51.994;4.472;2022-09-09T02:39:40;16.51;81.25
71175;DHT22;58876;51.994;4.472;2022-09-09T02:42:05;16.53;81.18
71175;DHT22;58876;51.994;4.472;2022-09-09T02:44:32;16.58;80.88
71175;DHT22;58876;51.994;4.472;2022-09-09T02:50:31;16.55;80.83
71175;DHT22;58876;51.994;4.472;2022-09-09T02:53:16;16.65;80.29
71175;DHT22;58876;51.994;4.472;2022-09-09T02:55:48;16.69;79.89
71175;DHT22;58876;51.994;4.472;2022-09-09T02:58:17;16.62;80.31
71175;DHT22;58876;51.994;4.472;2022-09-09T03:00:47;16.53;80.47
71175;DHT22;58876;51.994;4.472;2022-09-09T03:03:13;16.55;80.54
71175;DHT22;58876;51.994;4.472;2022-09-09T03:05:42;16.52;80.71
71175;DHT22;58876;51.994;4.472;2022-09-09T03:08:07;16.47;80.88
71175;DHT22;58876;51.994;4.472;2022-09-09T03:10:33;16.48;80.82
71175;DHT22;58876;51.994;4.472;2022-09-09T03:13:01;16.45;80.89
71175;DHT22;58876;51.994;4.472;2022-09-09T03:15:26;16.36;81.06
71175;DHT22;58876;51.994;4.472;2022-09-09T03:17:55;16.44;80.99
71175;DHT22;58876;51.994;4.472;2022-09-09T03:20:23;16.47;80.79
71175;DHT22;58876;51.994;4.472;2022-09-09T03:22:51;16.44;80.78
71175;DHT22;58876;51.994;4.472;2022-09-09T03:25:17;16.36;81.44
71175;DHT22;58876;51.994;4.472;2022-09-09T03:27:43;16.45;80.84
71175;DHT22;58876;51.994;4.472;2022-09-09T03:30:09;16.35;81.53
71175;DHT22;58876;51.994;4.472;2022-09-09T03:32:35;16.38;81.20
71175;DHT22;58876;51.994;4.472;2022-09-09T03:35:01;16.38;81.11
71175;DHT22;58876;51.994;4.472;2022-09-09T03:37:26;16.35;81.17
71175;DHT22;58876;51.994;4.472;2022-09-09T03:39:52;16.26;81.68
71175;DHT22;58876;51.994;4.472;2022-09-09T03:42:20;16.42;81.34
71175;DHT22;58876;51.994;4.472;2022-09-09T03:44:47;16.40;81.12
71175;DHT22;58876;51.994;4.472;2022-09-09T03:47:19;16.26;81.57
71175;DHT22;58876;51.994;4.472;2022-09-09T03:49:47;16.41;81.19
71175;DHT22;58876;51.994;4.472;2022-09-09T03:52:16;16.38;81.16
71175;DHT22;58876;51.994;4.472;2022-09-09T03:54:42;16.42;80.98
71175;DHT22;58876;51.994;4.472;2022-09-09T03:57:09;16.44;80.92
71175;DHT22;58876;51.994;4.472;2022-09-09T03:59:35;16.51;80.60
71175;DHT22;58876;51.994;4.472;2022-09-09T04:02:04;16.56;80.31
71175;DHT22;58876;51.994;4.472;2022-09-09T04:04:29;16.49;80.22
71175;DHT22;58876;51.994;4.472;2022-09-09T04:06:55;16.47;80.09
71175;DHT22;58876;51.994;4.472;2022-09-09T04:09:20;16.56;80.02
71175;DHT22;58876;51.994;4.472;2022-09-09T04:11:56;16.36;80.69
71175;DHT22;58876;51.994;4.472;2022-09-09T04:14:22;16.28;80.78
71175;DHT22;58876;51.994;4.472;2022-09-09T04:16:47;16.29;80.80
71175;DHT22;58876;51.994;4.472;2022-09-09T04:19:13;16.29;80.87
71175;DHT22;58876;51.994;4.472;2022-09-09T04:21:42;16.25;81.00
71175;DHT22;58876;51.994;4.472;2022-09-09T04:24:08;16.25;81.10
71175;DHT22;58876;51.994;4.472;2022-09-09T04:26:34;16.29;80.71
71175;DHT22;58876;51.994;4.472;2022-09-09T04:29:03;16.15;81.14
71175;DHT22;58876;51.994;4.472;2022-09-09T04:31:29;16.21;81.08
71175;DHT22;58876;51.994;4.472;2022-09-09T04:34:09;16.07;81.79
71175;DHT22;58876;51.994;4.472;2022-09-09T04:36:34;16.17;81.19
71175;DHT22;58876;51.994;4.472;2022-09-09T04:39:00;16.11;81.43
71175;DHT22;58876;51.994;4.472;2022-09-09T04:41:27;16.18;81.27
71175;DHT22;58876;51.994;4.472;2022-09-09T04:43:53;16.15;81.31
71175;DHT22;58876;51.994;4.472;2022-09-09T04:46:20;16.15;81.23
71175;DHT22;58876;51.994;4.472;2022-09-09T04:48:46;16.29;80.73
71175;DHT22;58876;51.994;4.472;2022-09-09T04:51:13;16.21;81.05
71175;DHT22;58876;51.994;4.472;2022-09-09T04:53:41;16.24;80.82
71175;DHT22;58876;51.994;4.472;2022-09-09T04:56:09;16.29;80.85
71175;DHT22;58876;51.994;4.472;2022-09-09T04:58:39;16.20;81.26
71175;DHT22;58876;51.994;4.472;2022-09-09T05:01:15;16.18;81.30
71175;DHT22;58876;51.994;4.472;2022-09-09T05:03:45;16.13;81.78
71175;DHT22;58876;51.994;4.472;2022-09-09T05:06:16;16.17;81.52
71175;DHT22;58876;51.994;4.472;2022-09-09T05:08:42;16.20;81.43
71175;DHT22;58876;51.994;4.472;2022-09-09T05:11:26;16.11;81.91
71175;DHT22;58876;51.994;4.472;2022-09-09T05:17:01;16.08;81.93
71175;DHT22;58876;51.994;4.472;2022-09-09T05:19:27;16.11;82.07
71175;DHT22;58876;51.994;4.472;2022-09-09T05:21:54;16.22;81.33
71175;DHT22;58876;51.994;4.472;2022-09-09T05:24:19;16.14;81.97
71175;DHT22;58876;51.994;4.472;2022-09-09T05:26:45;16.21;81.39
71175;DHT22;58876;51.994;4.472;2022-09-09T05:29:10;16.21;81.74
71175;DHT22;58876;51.994;4.472;2022-09-09T05:31:36;16.32;81.47
71175;DHT22;58876;51.994;4.472;2022-09-09T05:34:02;16.44;80.86
71175;DHT22;58876;51.994;4.472;2022-09-09T05:36:27;16.41;81.27
71175;DHT22;58876;51.994;4.472;2022-09-09T05:38:53;16.48;81.02
71175;DHT22;58876;51.994;4.472;2022-09-09T05:41:22;16.42;81.27
71175;DHT22;58876;51.994;4.472;2022-09-09T05:43:55;16.49;80.85
71175;DHT22;58876;51.994;4.472;2022-09-09T05:46:23;16.49;80.80
71175;DHT22;58876;51.994;4.472;2022-09-09T05:48:50;16.63;80.36
71175;DHT22;58876;51.994;4.472;2022-09-09T05:51:22;16.68;80.18
71175;DHT22;58876;51.994;4.472;2022-09-09T05:53:53;16.53;80.39
71175;DHT22;58876;51.994;4.472;2022-09-09T05:56:23;16.58;80.20
71175;DHT22;58876;51.994;4.472;2022-09-09T05:58:51;16.65;80.53
71175;DHT22;58876;51.994;4.472;2022-09-09T06:01:41;16.66;80.20
71175;DHT22;58876;51.994;4.472;2022-09-09T06:04:06;16.76;79.61
71175;DHT22;58876;51.994;4.472;2022-09-09T06:06:35;16.77;79.55
71175;DHT22;58876;51.994;4.472;2022-09-09T06:09:07;16.89;79.35
71175;DHT22;58876;51.994;4.472;2022-09-09T06:11:39;16.94;79.06
71175;DHT22;58876;51.994;4.472;2022-09-09T06:14:05;16.86;79.20
71175;DHT22;58876;51.994;4.472;2022-09-09T06:16:32;16.71;79.60
71175;DHT22;58876;51.994;4.472;2022-09-09T06:18:59;16.71;79.70
71175;DHT22;58876;51.994;4.472;2022-09-09T06:21:28;16.84;79.48
71175;DHT22;58876;51.994;4.472;2022-09-09T06:23:53;17.03;79.05
71175;DHT22;58876;51.994;4.472;2022-09-09T06:26:21;17.14;78.53
71175;DHT22;58876;51.994;4.472;2022-09-09T06:28:49;16.96;78.85
71175;DHT22;58876;51.994;4.472;2022-09-09T06:31:21;17.16;78.69
71175;DHT22;58876;51.994;4.472;2022-09-09T06:33:53;17.04;78.80
71175;DHT22;58876;51.994;4.472;2022-09-09T06:36:23;17.13;78.57
71175;DHT22;58876;51.994;4.472;2022-09-09T06:38:49;17.19;78.49
71175;DHT22;58876;51.994;4.472;2022-09-09T06:41:18;17.28;78.00
71175;DHT22;58876;51.994;4.472;2022-09-09T06:43:44;17.03;78.57
71175;DHT22;58876;51.994;4.472;2022-09-09T06:46:14;16.84;79.20
71175;DHT22;58876;51.994;4.472;2022-09-09T06:48:41;16.99;79.69
71175;DHT22;58876;51.994;4.472;2022-09-09T06:51:15;17.17;78.86
71175;DHT22;58876;51.994;4.472;2022-09-09T06:53:43;17.33;78.17
71175;DHT22;58876;51.994;4.472;2022-09-09T06:58:36;17.17;79.08
71175;DHT22;58876;51.994;4.472;2022-09-09T07:01:04;17.31;78.41
71175;DHT22;58876;51.994;4.472;2022-09-09T07:03:31;17.35;78.40
71175;DHT22;58876;51.994;4.472;2022-09-09T07:05:56;17.44;78.15
71175;DHT22;58876;51.994;4.472;2022-09-09T07:08:22;17.51;77.75
71175;DHT22;58876;51.994;4.472;2022-09-09T07:10:48;17.48;77.39
71175;DHT22;58876;51.994;4.472;2022-09-09T07:13:14;17.35;77.41
71175;DHT22;58876;51.994;4.472;2022-09-09T07:15:41;17.27;78.19
71175;DHT22;58876;51.994;4.472;2022-09-09T07:18:07;17.34;77.82
71175;DHT22;58876;51.994;4.472;2022-09-09T07:20:35;17.42;77.73
71175;DHT22;58876;51.994;4.472;2022-09-09T07:23:00;17.30;78.10
71175;DHT22;58876;51.994;4.472;2022-09-09T07:25:26;17.21;78.32
71175;DHT22;58876;51.994;4.472;2022-09-09T07:27:54;17.19;78.40
71175;DHT22;58876;51.994;4.472;2022-09-09T07:30:20;17.28;78.36
71175;DHT22;58876;51.994;4.472;2022-09-09T07:32:47;17.38;77.98
71175;DHT22;58876;51.994;4.472;2022-09-09T07:35:12;17.34;78.13
71175;DHT22;58876;51.994;4.472;2022-09-09T07:37:38;17.27;78.42
71175;DHT22;58876;51.994;4.472;2022-09-09T07:40:03;17.31;78.35
71175;DHT22;58876;51.994;4.472;2022-09-09T07:42:30;17.31;78.46
71175;DHT22;58876;51.994;4.472;2022-09-09T07:44:56;17.26;78.49
71175;DHT22;58876;51.994;4.472;2022-09-09T07:47:22;17.35;78.31
71175;DHT22;58876;51.994;4.472;2022-09-09T07:49:50;17.64;77.71
71175;DHT22;58876;51.994;4.472;2022-09-09T07:52:15;17.61;77.36
71175;DHT22;58876;51.994;4.472;2022-09-09T07:54:41;17.65;77.50
71175;DHT22;58876;51.994;4.472;2022-09-09T07:57:07;17.41;77.82
71175;DHT22;58876;51.994;4.472;2022-09-09T07:59:33;17.34;77.88
71175;DHT22;58876;51.994;4.472;2022-09-09T08:01:58;17.41;78.22
71175;DHT22;58876;51.994;4.472;2022-09-09T08:04:25;17.54;77.86
71175;DHT22;58876;51.994;4.472;2022-09-09T08:06:57;17.58;77.58
71175;DHT22;58876;51.994;4.472;2022-09-09T08:09:23;17.64;77.60
71175;DHT22;58876;51.994;4.472;2022-09-09T08:11:55;17.81;77.11
71175;DHT22;58876;51.994;4.472;2022-09-09T08:14:25;17.75;76.54
71175;DHT22;58876;51.994;4.472;2022-09-09T08:16:51;17.82;76.81
71175;DHT22;58876;51.994;4.472;2022-09-09T08:19:18;17.89;76.26
71175;DHT22;58876;51.994;4.472;2022-09-09T08:21:44;17.89;76.18
71175;DHT22;58876;51.994;4.472;2022-09-09T08:24:11;17.77;76.82
71175;DHT22;58876;51.994;4.472;2022-09-09T08:26:42;17.83;76.79
71175;DHT22;58876;51.994;4.472;2022-09-09T08:29:09;17.83;76.48
71175;DHT22;58876;51.994;4.472;2022-09-09T08:31:37;18.01;76.03
71175;DHT22;58876;51.994;4.472;2022-09-09T08:34:05;17.86;76.52
71175;DHT22;58876;51.994;4.472;2022-09-09T08:36:33;17.98;76.10
71175;DHT22;58876;51.994;4.472;2022-09-09T08:38:59;17.74;76.50
71175;DHT22;58876;51.994;4.472;2022-09-09T08:41:55;17.72;76.74
71175;DHT22;58876;51.994;4.472;2022-09-09T08:52:37;17.68;76.81
71175;DHT22;58876;51.994;4.472;2022-09-09T08:55:28;17.54;77.33
71175;DHT22;58876;51.994;4.472;2022-09-09T08:58:11;17.55;77.61
71175;DHT22;58876;51.994;4.472;2022-09-09T09:10:02;17.78;77.18
71175;DHT22;58876;51.994;4.472;2022-09-09T09:12:36;17.88;76.99
71175;DHT22;58876;51.994;4.472;2022-09-09T09:15:15;17.91;76.47
71175;DHT22;58876;51.994;4.472;2022-09-09T09:17:42;17.91;76.43
71175;DHT22;58876;51.994;4.472;2022-09-09T09:20:12;17.75;77.16
71175;DHT22;58876;51.994;4.472;2022-09-09T09:22:48;17.72;77.26
71175;DHT22;58876;51.994;4.472;2022-09-09T09:25:23;17.85;77.16
71175;DHT22;58876;51.994;4.472;2022-09-09T09:33:22;18.50;77.78
71175;DHT22;58876;51.994;4.472;2022-09-09T09:35:50;18.71;78.26
71175;DHT22;58876;51.994;4.472;2022-09-09T09:38:19;18.75;77.82
71175;DHT22;58876;51.994;4.472;2022-09-09T09:40:56;18.59;78.13
71175;DHT22;58876;51.994;4.472;2022-09-09T09:43:37;18.47;78.17
71175;DHT22;58876;51.994;4.472;2022-09-09T09:46:05;18.32;79.06
71175;DHT22;58876;51.994;4.472;2022-09-09T09:48:42;18.34;78.59
71175;DHT22;58876;51.994;4.472;2022-09-09T09:51:14;18.50;78.75
71175;DHT22;58876;51.994;4.472;2022-09-09T09:53:42;18.54;78.83
71175;DHT22;58876;51.994;4.472;2022-09-09T09:56:11;18.60;77.61
71175;DHT22;58876;51.994;4.472;2022-09-09T10:01:31;18.61;77.06
71175;DHT22;58876;51.994;4.472;2022-09-09T10:04:17;18.46;78.86
71175;DHT22;58876;51.994;4.472;2022-09-09T10:06:44;18.02;81.61
71175;DHT22;58876;51.994;4.472;2022-09-09T10:09:23;17.93;82.63
71175;DHT22;58876;51.994;4.472;2022-09-09T10:12:56;17.96;83.27
71175;DHT22;58876;51.994;4.472;2022-09-09T10:15:24;17.83;83.39
71175;DHT22;58876;51.994;4.472;2022-09-09T10:18:25;17.67;83.41
71175;DHT22;58876;51.994;4.472;2022-09-09T10:23:59;17.93;83.29
71175;DHT22;58876;51.994;4.472;2022-09-09T10:29:57;18.64;80.82
71175;DHT22;58876;51.994;4.472;2022-09-09T10:38:15;18.78;80.20
71175;DHT22;58876;51.994;4.472;2022-09-09T10:41:08;18.70;80.29
71175;DHT22;58876;51.994;4.472;2022-09-09T10:46:23;18.63;80.05
71175;DHT22;58876;51.994;4.472;2022-09-09T10:49:28;18.47;80.25
71175;DHT22;58876;51.994;4.472;2022-09-09T10:52:25;18.71;79.58
71175;DHT22;58876;51.994;4.472;2022-09-09T10:55:13;18.77;80.34
71175;DHT22;58876;51.994;4.472;2022-09-09T10:57:49;18.97;79.37
71175;DHT22;58876;51.994;4.472;2022-09-09T11:00:19;19.35;78.03
71175;DHT22;58876;51.994;4.472;2022-09-09T11:06:20;19.60;77.94
71175;DHT22;58876;51.994;4.472;2022-09-09T11:08:49;19.97;77.21
71175;DHT22;58876;51.994;4.472;2022-09-09T11:16:35;20.58;74.64
71175;DHT22;58876;51.994;4.472;2022-09-09T11:19:26;20.96;74.23
71175;DHT22;58876;51.994;4.472;2022-09-09T11:21:53;21.13;72.09
71175;DHT22;58876;51.994;4.472;2022-09-09T11:24:27;20.58;73.30
71175;DHT22;58876;51.994;4.472;2022-09-09T11:27:07;20.07;74.47
71175;DHT22;58876;51.994;4.472;2022-09-09T11:29:45;19.79;75.60
71175;DHT22;58876;51.994;4.472;2022-09-09T11:32:40;19.87;76.24
71175;DHT22;58876;51.994;4.472;2022-09-09T11:35:33;19.53;76.08
71175;DHT22;58876;51.994;4.472;2022-09-09T11:38:26;19.48;76.73
71175;DHT22;58876;51.994;4.472;2022-09-09T11:41:01;19.25;76.46
71175;DHT22;58876;51.994;4.472;2022-09-09T11:43:45;19.01;79.54
71175;DHT22;58876;51.994;4.472;2022-09-09T11:46:14;18.88;80.85
71175;DHT22;58876;51.994;4.472;2022-09-09T11:48:45;18.91;80.61
71175;DHT22;58876;51.994;4.472;2022-09-09T11:51:25;18.41;82.71
71175;DHT22;58876;51.994;4.472;2022-09-09T11:54:02;18.09;84.33
71175;DHT22;58876;51.994;4.472;2022-09-09T11:56:34;17.93;84.58
71175;DHT22;58876;51.994;4.472;2022-09-09T11:59:01;17.85;85.19
71175;DHT22;58876;51.994;4.472;2022-09-09T12:01:36;17.78;85.03
71175;DHT22;58876;51.994;4.472;2022-09-09T12:19:40;18.12;85.87
71175;DHT22;58876;51.994;4.472;2022-09-09T12:33:44;18.32;83.73
71175;DHT22;58876;51.994;4.472;2022-09-09T12:36:18;18.57;83.64
71175;DHT22;58876;51.994;4.472;2022-09-09T12:38:45;18.54;82.41
71175;DHT22;58876;51.994;4.472;2022-09-09T12:41:26;18.23;83.76
71175;DHT22;58876;51.994;4.472;2022-09-09T12:44:13;18.02;84.02
71175;DHT22;58876;51.994;4.472;2022-09-09T12:46:42;18.36;84.21
71175;DHT22;58876;51.994;4.472;2022-09-09T12:51:55;17.99;85.19
71175;DHT22;58876;51.994;4.472;2022-09-09T12:54:22;18.23;85.07
71175;DHT22;58876;51.994;4.472;2022-09-09T12:56:49;18.44;84.10
71175;DHT22;58876;51.994;4.472;2022-09-09T12:59:26;18.10;83.66
71175;DHT22;58876;51.994;4.472;2022-09-09T13:01:59;18.36;83.99
71175;DHT22;58876;51.994;4.472;2022-09-09T13:04:25;18.49;82.60
71175;DHT22;58876;51.994;4.472;2022-09-09T13:06:51;18.61;83.06
71175;DHT22;58876;51.994;4.472;2022-09-09T13:09:18;18.85;81.84
71175;DHT22;58876;51.994;4.472;2022-09-09T13:11:52;19.02;79.89
71175;DHT22;58876;51.994;4.472;2022-09-09T13:14:36;19.43;80.14
71175;DHT22;58876;51.994;4.472;2022-09-09T13:17:06;19.19;79.82
71175;DHT22;58876;51.994;4.472;2022-09-09T13:19:44;19.18;79.38
71175;DHT22;58876;51.994;4.472;2022-09-09T13:24:45;19.33;79.28
71175;DHT22;58876;51.994;4.472;2022-09-09T13:27:28;19.40;79.44
71175;DHT22;58876;51.994;4.472;2022-09-09T13:29:54;19.04;79.46
71175;DHT22;58876;51.994;4.472;2022-09-09T13:32:24;19.05;80.85
71175;DHT22;58876;51.994;4.472;2022-09-09T13:34:57;19.08;80.14
71175;DHT22;58876;51.994;4.472;2022-09-09T13:37:33;19.05;80.55
71175;DHT22;58876;51.994;4.472;2022-09-09T13:40:00;19.05;81.14
71175;DHT22;58876;51.994;4.472;2022-09-09T13:42:32;18.67;80.89
71175;DHT22;58876;51.994;4.472;2022-09-09T13:44:59;18.57;82.67
71175;DHT22;58876;51.994;4.472;2022-09-09T13:47:36;18.36;84.57
71175;DHT22;58876;51.994;4.472;2022-09-09T13:50:27;18.06;84.98
71175;DHT22;58876;51.994;4.472;2022-09-09T13:52:57;17.99;86.30
71175;DHT22;58876;51.994;4.472;2022-09-09T13:55:28;17.81;85.65
71175;DHT22;58876;51.994;4.472;2022-09-09T13:58:01;17.85;86.20
71175;DHT22;58876;51.994;4.472;2022-09-09T14:00:32;17.71;86.14
71175;DHT22;58876;51.994;4.472;2022-09-09T14:02:59;17.74;86.01
71175;DHT22;58876;51.994;4.472;2022-09-09T14:05:27;17.60;85.83
71175;DHT22;58876;51.994;4.472;2022-09-09T14:07:53;17.64;85.69
71175;DHT22;58876;51.994;4.472;2022-09-09T14:10:20;17.68;86.13
71175;DHT22;58876;51.994;4.472;2022-09-09T14:12:51;17.72;85.50
71175;DHT22;58876;51.994;4.472;2022-09-09T14:15:16;17.71;84.52
71175;DHT22;58876;51.994;4.472;2022-09-09T14:17:42;17.95;84.53
71175;DHT22;58876;51.994;4.472;2022-09-09T14:20:08;18.13;84.00
71175;DHT22;58876;51.994;4.472;2022-09-09T14:22:36;18.19;83.87
71175;DHT22;58876;51.994;4.472;2022-09-09T14:25:03;18.25;83.47
71175;DHT22;58876;51.994;4.472;2022-09-09T14:27:28;18.30;83.24
71175;DHT22;58876;51.994;4.472;2022-09-09T14:29:55;18.59;82.89
71175;DHT22;58876;51.994;4.472;2022-09-09T14:32:20;18.50;82.12
71175;DHT22;58876;51.994;4.472;2022-09-09T14:34:46;18.81;81.84
71175;DHT22;58876;51.994;4.472;2022-09-09T14:37:16;19.28;81.70
71175;DHT22;58876;51.994;4.472;2022-09-09T14:39:43;19.93;79.82
71175;DHT22;58876;51.994;4.472;2022-09-09T14:42:12;20.38;80.29
71175;DHT22;58876;51.994;4.472;2022-09-09T14:44:38;20.47;78.17
71175;DHT22;58876;51.994;4.472;2022-09-09T14:47:07;20.82;77.22
71175;DHT22;58876;51.994;4.472;2022-09-09T14:49:36;20.47;75.13
71175;DHT22;58876;51.994;4.472;2022-09-09T14:52:03;19.91;74.91
71175;DHT22;58876;51.994;4.472;2022-09-09T14:54:30;19.96;75.29
71175;DHT22;58876;51.994;4.472;2022-09-09T14:56:56;20.32;74.90
71175;DHT22;58876;51.994;4.472;2022-09-09T14:59:22;20.27;73.77
71175;DHT22;58876;51.994;4.472;2022-09-09T15:01:47;20.25;74.00
71175;DHT22;58876;51.994;4.472;2022-09-09T15:04:13;20.52;74.74
71175;DHT22;58876;51.994;4.472;2022-09-09T15:06:42;20.45;74.09
71175;DHT22;58876;51.994;4.472;2022-09-09T15:09:10;20.62;72.23
71175;DHT22;58876;51.994;4.472;2022-09-09T15:11:37;20.80;71.82
71175;DHT22;58876;51.994;4.472;2022-09-09T15:14:07;20.93;72.07
71175;DHT22;58876;51.994;4.472;2022-09-09T15:16:34;21.03;70.79
71175;DHT22;58876;51.994;4.472;2022-09-09T15:19:02;20.61;71.65
71175;DHT22;58876;51.994;4.472;2022-09-09T15:21:30;20.25;72.74
71175;DHT22;58876;51.994;4.472;2022-09-09T15:23:57;20.01;73.14
71175;DHT22;58876;51.994;4.472;2022-09-09T15:26:23;19.69;74.59
71175;DHT22;58876;51.994;4.472;2022-09-09T15:28:49;19.32;74.48
71175;DHT22;58876;51.994;4.472;2022-09-09T15:31:25;19.23;75.31
71175;DHT22;58876;51.994;4.472;2022-09-09T15:33:54;19.23;75.30
71175;DHT22;58876;51.994;4.472;2022-09-09T15:36:34;19.46;76.36
71175;DHT22;58876;51.994;4.472;2022-09-09T15:39:01;19.23;77.22
71175;DHT22;58876;51.994;4.472;2022-09-09T15:41:28;19.01;77.37
71175;DHT22;58876;51.994;4.472;2022-09-09T15:43:57;18.87;77.82
71175;DHT22;58876;51.994;4.472;2022-09-09T15:46:29;18.87;79.23
71175;DHT22;58876;51.994;4.472;2022-09-09T15:49:10;19.07;79.65
71175;DHT22;58876;51.994;4.472;2022-09-09T15:51:38;18.99;79.10
71175;DHT22;58876;51.994;4.472;2022-09-09T15:54:04;18.91;78.89
71175;DHT22;58876;51.994;4.472;2022-09-09T15:56:31;18.92;79.09
71175;DHT22;58876;51.994;4.472;2022-09-09T15:58:59;19.05;79.64
71175;DHT22;58876;51.994;4.472;2022-09-09T16:01:26;18.91;80.35
71175;DHT22;58876;51.994;4.472;2022-09-09T16:03:53;18.99;81.15
71175;DHT22;58876;51.994;4.472;2022-09-09T16:06:23;18.75;82.52
71175;DHT22;58876;51.994;4.472;2022-09-09T16:08:51;18.67;82.46
71175;DHT22;58876;51.994;4.472;2022-09-09T16:11:22;18.47;83.07
71175;DHT22;58876;51.994;4.472;2022-09-09T16:13:51;18.67;83.15
71175;DHT22;58876;51.994;4.472;2022-09-09T16:16:19;18.63;82.83
71175;DHT22;58876;51.994;4.472;2022-09-09T16:18:49;18.47;82.03
71175;DHT22;58876;51.994;4.472;2022-09-09T16:21:18;18.57;82.78
71175;DHT22;58876;51.994;4.472;2022-09-09T16:23:44;18.63;82.51
71175;DHT22;58876;51.994;4.472;2022-09-09T16:26:16;18.50;83.05
71175;DHT22;58876;51.994;4.472;2022-09-09T16:28:42;18.54;82.60
71175;DHT22;58876;51.994;4.472;2022-09-09T16:31:10;18.56;82.98
71175;DHT22;58876;51.994;4.472;2022-09-09T16:33:37;18.61;82.69
71175;DHT22;58876;51.994;4.472;2022-09-09T16:36:17;18.50;81.70
71175;DHT22;58876;51.994;4.472;2022-09-09T16:38:44;18.47;82.28
71175;DHT22;58876;51.994;4.472;2022-09-09T16:41:11;18.68;81.72
71175;DHT22;58876;51.994;4.472;2022-09-09T16:43:38;18.67;81.30
71175;DHT22;58876;51.994;4.472;2022-09-09T16:46:12;18.56;78.52
71175;DHT22;58876;51.994;4.472;2022-09-09T16:48:38;18.49;79.83
71175;DHT22;58876;51.994;4.472;2022-09-09T16:51:06;18.47;78.99
71175;DHT22;58876;51.994;4.472;2022-09-09T16:53:34;18.44;79.38
71175;DHT22;58876;51.994;4.472;2022-09-09T16:56:07;18.19;78.68
71175;DHT22;58876;51.994;4.472;2022-09-09T16:58:33;18.12;80.56
71175;DHT22;58876;51.994;4.472;2022-09-09T17:01:00;18.08;80.32
71175;DHT22;58876;51.994;4.472;2022-09-09T17:03:27;17.88;81.75
71175;DHT22;58876;51.994;4.472;2022-09-09T17:05:52;17.82;82.31
71175;DHT22;58876;51.994;4.472;2022-09-09T17:08:17;17.95;82.31
71175;DHT22;58876;51.994;4.472;2022-09-09T17:10:43;18.05;82.25
71175;DHT22;58876;51.994;4.472;2022-09-09T17:13:08;17.92;82.01
71175;DHT22;58876;51.994;4.472;2022-09-09T17:15:39;17.98;82.08
71175;DHT22;58876;51.994;4.472;2022-09-09T17:18:11;18.13;81.80
71175;DHT22;58876;51.994;4.472;2022-09-09T17:20:40;18.14;81.81
71175;DHT22;58876;51.994;4.472;2022-09-09T17:23:09;18.17;81.45
71175;DHT22;58876;51.994;4.472;2022-09-09T17:25:35;18.16;81.77
71175;DHT22;58876;51.994;4.472;2022-09-09T17:28:02;18.13;82.36
71175;DHT22;58876;51.994;4.472;2022-09-09T17:30:30;18.01;83.06
71175;DHT22;58876;51.994;4.472;2022-09-09T17:33:00;17.72;83.34
71175;DHT22;58876;51.994;4.472;2022-09-09T17:35:26;17.72;84.34
71175;DHT22;58876;51.994;4.472;2022-09-09T17:37:53;17.58;84.53
71175;DHT22;58876;51.994;4.472;2022-09-09T17:40:20;17.51;84.66
71175;DHT22;58876;51.994;4.472;2022-09-09T17:42:48;17.62;84.48
71175;DHT22;58876;51.994;4.472;2022-09-09T17:45:14;17.40;84.60
71175;DHT22;58876;51.994;4.472;2022-09-09T17:47:41;17.45;85.33
71175;DHT22;58876;51.994;4.472;2022-09-09T17:50:08;17.44;84.99
71175;DHT22;58876;51.994;4.472;2022-09-09T17:52:34;17.52;84.67
71175;DHT22;58876;51.994;4.472;2022-09-09T17:55:00;17.47;84.83
71175;DHT22;58876;51.994;4.472;2022-09-09T17:57:25;17.45;84.48
71175;DHT22;58876;51.994;4.472;2022-09-09T17:59:51;17.34;83.64
71175;DHT22;58876;51.994;4.472;2022-09-09T18:02:17;17.37;83.81
71175;DHT22;58876;51.994;4.472;2022-09-09T18:04:43;17.30;84.51
71175;DHT22;58876;51.994;4.472;2022-09-09T18:07:08;17.28;84.97